sensor_id;sensor_type;location;lat;lon;timestamp;P1;durP1;ratioP1;P2;durP2;ratioP2
43154;SDS011;34212;51.018;13.586;2023-07-16T00:09:57;7.72;;;3.00;;
43154;SDS011;34212;51.018;13.586;2023-07-16T00:20:00;8.17;;;3.57;;
43154;SDS011;34212;51.018;13.586;2023-07-16T00:25:02;6.85;;;2.88;;
43154;SDS011;34212;51.018;13.586;2023-07-16T00:30:04;4.70;;;3.00;;
43154;SDS011;34212;51.018;13.586;2023-07-16T00:35:06;5.43;;;3.15;;
43154;SDS011;34212;51.018;13.586;2023-07-16T00:40:08;7.25;;;3.15;;
43154;SDS011;34212;51.018;13.586;2023-07-16T00:45:11;6.45;;;3.90;;
43154;SDS011;34212;51.018;13.586;2023-07-16T00:50:15;4.97;;;3.30;;
43154;SDS011;34212;51.018;13.586;2023-07-16T00:55:17;8.52;;;3.08;;
43154;SDS011;34212;51.018;13.586;2023-07-16T01:05:21;5.00;;;2.70;;
43154;SDS011;34212;51.018;13.586;2023-07-16T01:10:27;4.18;;;2.83;;
43154;SDS011;34212;51.018;13.586;2023-07-16T01:15:29;4.03;;;2.70;;
43154;SDS011;34212;51.018;13.586;2023-07-16T01:20:31;4.40;;;2.50;;
43154;SDS011;34212;51.018;13.586;2023-07-16T01:31:05;8.43;;;1.95;;
43154;SDS011;34212;51.018;13.586;2023-07-16T01:36:07;2.22;;;1.98;;
43154;SDS011;34212;51.018;13.586;2023-07-16T01:41:10;7.97;;;1.92;;
43154;SDS011;34212;51.018;13.586;2023-07-16T01:46:12;4.40;;;1.70;;
43154;SDS011;34212;51.018;13.586;2023-07-16T01:51:14;5.20;;;2.22;;
43154;SDS011;34212;51.018;13.586;2023-07-16T01:56:16;5.18;;;1.73;;
43154;SDS011;34212;51.018;13.586;2023-07-16T02:01:22;6.65;;;1.80;;
43154;SDS011;34212;51.018;13.586;2023-07-16T02:06:23;7.50;;;1.83;;
43154;SDS011;34212;51.018;13.586;2023-07-16T02:11:25;4.38;;;1.67;;
43154;SDS011;34212;51.018;13.586;2023-07-16T02:16:26;5.85;;;2.45;;
43154;SDS011;34212;51.018;13.586;2023-07-16T02:21:28;3.28;;;2.05;;
43154;SDS011;34212;51.018;13.586;2023-07-16T02:26:30;4.75;;;1.98;;
43154;SDS011;34212;51.018;13.586;2023-07-16T02:31:31;5.80;;;1.80;;
43154;SDS011;34212;51.018;13.586;2023-07-16T02:36:33;9.20;;;1.60;;
43154;SDS011;34212;51.018;13.586;2023-07-16T02:41:34;3.33;;;1.92;;
43154;SDS011;34212;51.018;13.586;2023-07-16T02:46:36;8.27;;;1.80;;
43154;SDS011;34212;51.018;13.586;2023-07-16T02:51:37;7.85;;;1.75;;
43154;SDS011;34212;51.018;13.586;2023-07-16T02:56:39;3.30;;;1.73;;
43154;SDS011;34212;51.018;13.586;2023-07-16T03:01:40;6.20;;;1.42;;
43154;SDS011;34212;51.018;13.586;2023-07-16T03:11:44;7.20;;;1.80;;
43154;SDS011;34212;51.018;13.586;2023-07-16T03:16:45;3.30;;;1.40;;
43154;SDS011;34212;51.018;13.586;2023-07-16T03:21:48;4.45;;;1.60;;
43154;SDS011;34212;51.018;13.586;2023-07-16T03:26:51;7.22;;;2.00;;
43154;SDS011;34212;51.018;13.586;2023-07-16T03:31:59;3.97;;;1.80;;
43154;SDS011;34212;51.018;13.586;2023-07-16T03:37:01;4.78;;;2.30;;
43154;SDS011;34212;51.018;13.586;2023-07-16T03:42:05;4.97;;;2.38;;
43154;SDS011;34212;51.018;13.586;2023-07-16T03:47:07;7.15;;;2.20;;
43154;SDS011;34212;51.018;13.586;2023-07-16T03:57:10;4.37;;;2.30;;
43154;SDS011;34212;51.018;13.586;2023-07-16T04:02:12;5.53;;;2.10;;
43154;SDS011;34212;51.018;13.586;2023-07-16T04:07:14;3.58;;;2.30;;
43154;SDS011;34212;51.018;13.586;2023-07-16T04:12:17;4.10;;;2.13;;
43154;SDS011;34212;51.018;13.586;2023-07-16T04:17:18;5.15;;;2.40;;
43154;SDS011;34212;51.018;13.586;2023-07-16T04:22:20;2.38;;;1.70;;
43154;SDS011;34212;51.018;13.586;2023-07-16T04:27:21;4.68;;;2.42;;
43154;SDS011;34212;51.018;13.586;2023-07-16T04:32:23;3.63;;;2.30;;
43154;SDS011;34212;51.018;13.586;2023-07-16T04:37:24;4.20;;;2.40;;
43154;SDS011;34212;51.018;13.586;2023-07-16T04:42:26;3.00;;;2.13;;
43154;SDS011;34212;51.018;13.586;2023-07-16T04:47:27;2.92;;;2.55;;
43154;SDS011;34212;51.018;13.586;2023-07-16T04:52:29;3.72;;;2.15;;
43154;SDS011;34212;51.018;13.586;2023-07-16T04:57:32;4.32;;;2.15;;
43154;SDS011;34212;51.018;13.586;2023-07-16T05:02:34;3.03;;;2.10;;
43154;SDS011;34212;51.018;13.586;2023-07-16T05:07:35;2.25;;;2.00;;
43154;SDS011;34212;51.018;13.586;2023-07-16T05:12:37;2.38;;;1.65;;
43154;SDS011;34212;51.018;13.586;2023-07-16T05:17:38;3.60;;;1.80;;
43154;SDS011;34212;51.018;13.586;2023-07-16T05:22:40;3.55;;;1.98;;
43154;SDS011;34212;51.018;13.586;2023-07-16T05:27:41;4.50;;;2.10;;
43154;SDS011;34212;51.018;13.586;2023-07-16T05:32:43;3.92;;;1.83;;
43154;SDS011;34212;51.018;13.586;2023-07-16T05:37:44;2.00;;;1.80;;
43154;SDS011;34212;51.018;13.586;2023-07-16T05:42:46;3.85;;;1.83;;
43154;SDS011;34212;51.018;13.586;2023-07-16T05:47:47;4.30;;;2.10;;
43154;SDS011;34212;51.018;13.586;2023-07-16T05:52:49;4.78;;;2.05;;
43154;SDS011;34212;51.018;13.586;2023-07-16T05:57:51;4.38;;;1.83;;
43154;SDS011;34212;51.018;13.586;2023-07-16T06:02:52;2.65;;;1.73;;
43154;SDS011;34212;51.018;13.586;2023-07-16T06:07:54;2.95;;;2.22;;
43154;SDS011;34212;51.018;13.586;2023-07-16T06:12:55;3.70;;;2.20;;
43154;SDS011;34212;51.018;13.586;2023-07-16T06:17:57;6.28;;;2.50;;
43154;SDS011;34212;51.018;13.586;2023-07-16T06:22:58;3.13;;;2.00;;
43154;SDS011;34212;51.018;13.586;2023-07-16T06:28:00;3.90;;;2.00;;
43154;SDS011;34212;51.018;13.586;2023-07-16T06:33:01;2.88;;;1.90;;
43154;SDS011;34212;51.018;13.586;2023-07-16T06:38:03;2.58;;;1.95;;
43154;SDS011;34212;51.018;13.586;2023-07-16T06:43:05;5.65;;;2.10;;
43154;SDS011;34212;51.018;13.586;2023-07-16T06:48:06;2.45;;;2.03;;
43154;SDS011;34212;51.018;13.586;2023-07-16T06:53:08;2.70;;;1.83;;
43154;SDS011;34212;51.018;13.586;2023-07-16T06:58:10;2.60;;;2.00;;
43154;SDS011;34212;51.018;13.586;2023-07-16T07:03:12;3.17;;;1.90;;
43154;SDS011;34212;51.018;13.586;2023-07-16T07:08:14;2.47;;;1.75;;
43154;SDS011;34212;51.018;13.586;2023-07-16T07:13:15;2.75;;;1.90;;
43154;SDS011;34212;51.018;13.586;2023-07-16T07:18:17;1.88;;;1.60;;
43154;SDS011;34212;51.018;13.586;2023-07-16T07:23:18;3.00;;;1.75;;
43154;SDS011;34212;51.018;13.586;2023-07-16T07:28:20;2.10;;;1.60;;
43154;SDS011;34212;51.018;13.586;2023-07-16T07:33:21;4.45;;;2.00;;
43154;SDS011;34212;51.018;13.586;2023-07-16T07:43:24;2.20;;;1.87;;
43154;SDS011;34212;51.018;13.586;2023-07-16T07:48:26;4.75;;;2.00;;
43154;SDS011;34212;51.018;13.586;2023-07-16T07:53:27;3.13;;;1.95;;
43154;SDS011;34212;51.018;13.586;2023-07-16T07:58:29;3.80;;;2.03;;
43154;SDS011;34212;51.018;13.586;2023-07-16T08:03:30;4.35;;;2.00;;
43154;SDS011;34212;51.018;13.586;2023-07-16T08:08:32;2.20;;;1.85;;
43154;SDS011;34212;51.018;13.586;2023-07-16T08:13:34;2.92;;;1.88;;
43154;SDS011;34212;51.018;13.586;2023-07-16T08:18:35;3.17;;;2.00;;
43154;SDS011;34212;51.018;13.586;2023-07-16T08:23:37;2.85;;;1.65;;
43154;SDS011;34212;51.018;13.586;2023-07-16T08:28:38;10.57;;;1.75;;
43154;SDS011;34212;51.018;13.586;2023-07-16T08:33:43;3.42;;;2.17;;
43154;SDS011;34212;51.018;13.586;2023-07-16T08:38:44;3.70;;;2.28;;
43154;SDS011;34212;51.018;13.586;2023-07-16T08:43:46;3.92;;;1.98;;
43154;SDS011;34212;51.018;13.586;2023-07-16T08:48:50;5.13;;;2.08;;
43154;SDS011;34212;51.018;13.586;2023-07-16T08:53:53;7.13;;;2.10;;
43154;SDS011;34212;51.018;13.586;2023-07-16T09:03:59;5.13;;;2.28;;
43154;SDS011;34212;51.018;13.586;2023-07-16T09:09:01;4.07;;;1.95;;
43154;SDS011;34212;51.018;13.586;2023-07-16T09:24:11;3.30;;;1.80;;
43154;SDS011;34212;51.018;13.586;2023-07-16T09:34:14;2.53;;;1.60;;
43154;SDS011;34212;51.018;13.586;2023-07-16T09:39:16;5.88;;;1.77;;
43154;SDS011;34212;51.018;13.586;2023-07-16T09:44:19;2.92;;;2.00;;
43154;SDS011;34212;51.018;13.586;2023-07-16T09:49:21;2.40;;;1.77;;
43154;SDS011;34212;51.018;13.586;2023-07-16T09:54:23;7.97;;;2.10;;
43154;SDS011;34212;51.018;13.586;2023-07-16T09:59:30;3.63;;;1.70;;
43154;SDS011;34212;51.018;13.586;2023-07-16T10:04:37;4.00;;;1.83;;
43154;SDS011;34212;51.018;13.586;2023-07-16T10:09:50;3.28;;;1.90;;
43154;SDS011;34212;51.018;13.586;2023-07-16T10:14:58;14.43;;;1.98;;
43154;SDS011;34212;51.018;13.586;2023-07-16T10:20:00;6.57;;;2.10;;
43154;SDS011;34212;51.018;13.586;2023-07-16T10:25:10;3.25;;;1.75;;
43154;SDS011;34212;51.018;13.586;2023-07-16T10:30:23;6.30;;;1.77;;
43154;SDS011;34212;51.018;13.586;2023-07-16T10:35:24;2.60;;;1.75;;
43154;SDS011;34212;51.018;13.586;2023-07-16T10:40:26;5.97;;;1.88;;
43154;SDS011;34212;51.018;13.586;2023-07-16T10:45:28;4.03;;;1.73;;
43154;SDS011;34212;51.018;13.586;2023-07-16T10:50:32;3.53;;;1.77;;
43154;SDS011;34212;51.018;13.586;2023-07-16T10:55:35;3.35;;;2.25;;
43154;SDS011;34212;51.018;13.586;2023-07-16T11:00:39;4.93;;;2.08;;
43154;SDS011;34212;51.018;13.586;2023-07-16T11:05:41;4.28;;;1.92;;
43154;SDS011;34212;51.018;13.586;2023-07-16T11:10:42;3.33;;;1.70;;
43154;SDS011;34212;51.018;13.586;2023-07-16T11:15:44;3.13;;;2.17;;
43154;SDS011;34212;51.018;13.586;2023-07-16T11:20:45;3.30;;;1.70;;
43154;SDS011;34212;51.018;13.586;2023-07-16T11:25:51;3.53;;;2.17;;
43154;SDS011;34212;51.018;13.586;2023-07-16T11:30:53;2.55;;;2.13;;
43154;SDS011;34212;51.018;13.586;2023-07-16T11:35:55;3.10;;;1.88;;
43154;SDS011;34212;51.018;13.586;2023-07-16T11:40:59;2.97;;;1.90;;
43154;SDS011;34212;51.018;13.586;2023-07-16T11:46:02;3.72;;;2.10;;
43154;SDS011;34212;51.018;13.586;2023-07-16T11:51:04;2.65;;;2.00;;
43154;SDS011;34212;51.018;13.586;2023-07-16T11:56:05;3.72;;;1.92;;
43154;SDS011;34212;51.018;13.586;2023-07-16T12:01:07;2.78;;;1.90;;
43154;SDS011;34212;51.018;13.586;2023-07-16T12:06:09;3.22;;;2.10;;
43154;SDS011;34212;51.018;13.586;2023-07-16T12:11:10;3.13;;;2.40;;
43154;SDS011;34212;51.018;13.586;2023-07-16T12:16:12;4.72;;;2.10;;
43154;SDS011;34212;51.018;13.586;2023-07-16T12:21:13;3.63;;;2.10;;
43154;SDS011;34212;51.018;13.586;2023-07-16T12:26:15;4.28;;;2.00;;
43154;SDS011;34212;51.018;13.586;2023-07-16T12:31:16;5.00;;;2.45;;
43154;SDS011;34212;51.018;13.586;2023-07-16T12:36:18;3.17;;;2.13;;
43154;SDS011;34212;51.018;13.586;2023-07-16T12:41:20;5.45;;;1.90;;
43154;SDS011;34212;51.018;13.586;2023-07-16T12:46:22;4.30;;;2.03;;
43154;SDS011;34212;51.018;13.586;2023-07-16T12:51:23;5.55;;;2.40;;
43154;SDS011;34212;51.018;13.586;2023-07-16T12:56:25;4.88;;;2.00;;
43154;SDS011;34212;51.018;13.586;2023-07-16T13:01:26;4.05;;;2.00;;
43154;SDS011;34212;51.018;13.586;2023-07-16T13:06:28;3.78;;;1.90;;
43154;SDS011;34212;51.018;13.586;2023-07-16T13:11:29;2.67;;;2.00;;
43154;SDS011;34212;51.018;13.586;2023-07-16T13:16:32;3.40;;;2.25;;
43154;SDS011;34212;51.018;13.586;2023-07-16T13:21:33;3.58;;;2.00;;
43154;SDS011;34212;51.018;13.586;2023-07-16T13:26:34;4.72;;;1.98;;
43154;SDS011;34212;51.018;13.586;2023-07-16T13:31:36;4.30;;;2.00;;
43154;SDS011;34212;51.018;13.586;2023-07-16T13:36:37;2.72;;;1.80;;
43154;SDS011;34212;51.018;13.586;2023-07-16T13:41:39;2.75;;;2.10;;
43154;SDS011;34212;51.018;13.586;2023-07-16T13:46:41;4.25;;;2.70;;
43154;SDS011;34212;51.018;13.586;2023-07-16T13:51:43;3.33;;;2.03;;
43154;SDS011;34212;51.018;13.586;2023-07-16T13:56:44;2.92;;;1.75;;
43154;SDS011;34212;51.018;13.586;2023-07-16T14:01:46;5.90;;;2.13;;
43154;SDS011;34212;51.018;13.586;2023-07-16T14:06:48;3.92;;;1.80;;
43154;SDS011;34212;51.018;13.586;2023-07-16T14:11:49;3.53;;;1.83;;
43154;SDS011;34212;51.018;13.586;2023-07-16T14:16:51;3.90;;;1.70;;
43154;SDS011;34212;51.018;13.586;2023-07-16T14:21:53;3.55;;;1.90;;
43154;SDS011;34212;51.018;13.586;2023-07-16T14:26:57;4.25;;;1.90;;
43154;SDS011;34212;51.018;13.586;2023-07-16T14:32:01;9.25;;;1.83;;
43154;SDS011;34212;51.018;13.586;2023-07-16T14:37:03;2.53;;;1.90;;
43154;SDS011;34212;51.018;13.586;2023-07-16T14:42:06;5.90;;;2.25;;
43154;SDS011;34212;51.018;13.586;2023-07-16T14:47:07;2.55;;;1.63;;
43154;SDS011;34212;51.018;13.586;2023-07-16T14:52:09;6.00;;;1.90;;
43154;SDS011;34212;51.018;13.586;2023-07-16T14:57:10;3.88;;;1.98;;
43154;SDS011;34212;51.018;13.586;2023-07-16T15:02:12;3.50;;;1.73;;
43154;SDS011;34212;51.018;13.586;2023-07-16T15:07:13;8.82;;;1.90;;
43154;SDS011;34212;51.018;13.586;2023-07-16T15:12:15;4.80;;;1.90;;
43154;SDS011;34212;51.018;13.586;2023-07-16T15:17:16;6.88;;;1.65;;
43154;SDS011;34212;51.018;13.586;2023-07-16T15:22:18;3.17;;;1.60;;
43154;SDS011;34212;51.018;13.586;2023-07-16T15:27:21;2.63;;;1.90;;
43154;SDS011;34212;51.018;13.586;2023-07-16T15:32:23;3.85;;;1.65;;
43154;SDS011;34212;51.018;13.586;2023-07-16T15:37:24;2.83;;;1.60;;
43154;SDS011;34212;51.018;13.586;2023-07-16T15:42:27;3.38;;;1.50;;
43154;SDS011;34212;51.018;13.586;2023-07-16T15:47:28;4.97;;;1.75;;
43154;SDS011;34212;51.018;13.586;2023-07-16T15:52:30;3.38;;;1.80;;
43154;SDS011;34212;51.018;13.586;2023-07-16T15:57:34;2.60;;;1.60;;
43154;SDS011;34212;51.018;13.586;2023-07-16T16:02:36;2.63;;;1.85;;
43154;SDS011;34212;51.018;13.586;2023-07-16T16:07:45;3.83;;;1.52;;
43154;SDS011;34212;51.018;13.586;2023-07-16T16:12:47;3.25;;;1.92;;
43154;SDS011;34212;51.018;13.586;2023-07-16T16:17:49;5.60;;;2.28;;
43154;SDS011;34212;51.018;13.586;2023-07-16T16:22:50;3.33;;;1.73;;
43154;SDS011;34212;51.018;13.586;2023-07-16T16:27:52;2.33;;;1.70;;
43154;SDS011;34212;51.018;13.586;2023-07-16T16:32:54;3.85;;;2.00;;
43154;SDS011;34212;51.018;13.586;2023-07-16T16:37:56;4.80;;;1.77;;
43154;SDS011;34212;51.018;13.586;2023-07-16T16:42:57;3.15;;;1.67;;
43154;SDS011;34212;51.018;13.586;2023-07-16T16:48:02;4.00;;;1.90;;
43154;SDS011;34212;51.018;13.586;2023-07-16T16:53:04;6.43;;;2.38;;
43154;SDS011;34212;51.018;13.586;2023-07-16T16:58:06;3.33;;;1.88;;
43154;SDS011;34212;51.018;13.586;2023-07-16T17:03:07;2.85;;;1.65;;
43154;SDS011;34212;51.018;13.586;2023-07-16T17:08:09;3.30;;;1.90;;
43154;SDS011;34212;51.018;13.586;2023-07-16T17:13:11;3.38;;;2.10;;
43154;SDS011;34212;51.018;13.586;2023-07-16T17:18:13;2.95;;;1.90;;
43154;SDS011;34212;51.018;13.586;2023-07-16T17:23:15;3.65;;;2.03;;
43154;SDS011;34212;51.018;13.586;2023-07-16T17:28:16;3.35;;;2.15;;
43154;SDS011;34212;51.018;13.586;2023-07-16T17:33:18;5.57;;;2.30;;
43154;SDS011;34212;51.018;13.586;2023-07-16T17:38:19;4.82;;;2.38;;
43154;SDS011;34212;51.018;13.586;2023-07-16T17:43:21;3.90;;;2.22;;
43154;SDS011;34212;51.018;13.586;2023-07-16T17:48:23;3.55;;;2.22;;
43154;SDS011;34212;51.018;13.586;2023-07-16T17:53:24;3.25;;;2.17;;
43154;SDS011;34212;51.018;13.586;2023-07-16T17:58:26;4.05;;;2.22;;
43154;SDS011;34212;51.018;13.586;2023-07-16T18:03:27;3.13;;;1.90;;
43154;SDS011;34212;51.018;13.586;2023-07-16T18:08:29;2.75;;;2.10;;
43154;SDS011;34212;51.018;13.586;2023-07-16T18:13:31;5.07;;;3.35;;
43154;SDS011;34212;51.018;13.586;2023-07-16T18:18:32;7.00;;;2.75;;
43154;SDS011;34212;51.018;13.586;2023-07-16T18:23:35;3.92;;;2.40;;
43154;SDS011;34212;51.018;13.586;2023-07-16T18:28:37;4.28;;;2.45;;
43154;SDS011;34212;51.018;13.586;2023-07-16T18:33:40;4.20;;;2.38;;
43154;SDS011;34212;51.018;13.586;2023-07-16T18:38:41;5.72;;;2.95;;
43154;SDS011;34212;51.018;13.586;2023-07-16T18:43:43;6.72;;;3.45;;
43154;SDS011;34212;51.018;13.586;2023-07-16T18:48:46;9.15;;;4.13;;
43154;SDS011;34212;51.018;13.586;2023-07-16T18:53:47;5.43;;;4.13;;
43154;SDS011;34212;51.018;13.586;2023-07-16T18:58:49;5.30;;;2.53;;
43154;SDS011;34212;51.018;13.586;2023-07-16T19:03:50;4.25;;;2.40;;
43154;SDS011;34212;51.018;13.586;2023-07-16T19:08:52;5.20;;;2.70;;
43154;SDS011;34212;51.018;13.586;2023-07-16T19:13:54;4.40;;;2.53;;
43154;SDS011;34212;51.018;13.586;2023-07-16T19:18:57;4.10;;;2.45;;
43154;SDS011;34212;51.018;13.586;2023-07-16T19:23:58;5.22;;;2.70;;
43154;SDS011;34212;51.018;13.586;2023-07-16T19:29:00;4.05;;;2.88;;
43154;SDS011;34212;51.018;13.586;2023-07-16T19:39:03;4.78;;;2.53;;
43154;SDS011;34212;51.018;13.586;2023-07-16T19:49:07;7.00;;;2.97;;
43154;SDS011;34212;51.018;13.586;2023-07-16T19:54:09;6.68;;;2.60;;
43154;SDS011;34212;51.018;13.586;2023-07-16T19:59:11;5.53;;;2.83;;
43154;SDS011;34212;51.018;13.586;2023-07-16T20:09:14;6.65;;;3.25;;
43154;SDS011;34212;51.018;13.586;2023-07-16T20:14:16;5.72;;;2.70;;
43154;SDS011;34212;51.018;13.586;2023-07-16T20:29:21;4.85;;;2.38;;
43154;SDS011;34212;51.018;13.586;2023-07-16T20:39:24;3.70;;;2.50;;
43154;SDS011;34212;51.018;13.586;2023-07-16T20:44:25;5.05;;;2.83;;
43154;SDS011;34212;51.018;13.586;2023-07-16T20:49:27;3.83;;;2.30;;
43154;SDS011;34212;51.018;13.586;2023-07-16T20:54:30;5.05;;;2.70;;
43154;SDS011;34212;51.018;13.586;2023-07-16T20:59:31;4.32;;;2.65;;
43154;SDS011;34212;51.018;13.586;2023-07-16T21:04:33;4.35;;;2.70;;
43154;SDS011;34212;51.018;13.586;2023-07-16T21:09:34;4.53;;;2.63;;
43154;SDS011;34212;51.018;13.586;2023-07-16T21:14:36;6.40;;;2.65;;
43154;SDS011;34212;51.018;13.586;2023-07-16T21:19:37;5.25;;;2.70;;
43154;SDS011;34212;51.018;13.586;2023-07-16T21:24:39;3.65;;;2.80;;
43154;SDS011;34212;51.018;13.586;2023-07-16T21:29:40;4.25;;;2.60;;
43154;SDS011;34212;51.018;13.586;2023-07-16T21:34:41;7.18;;;2.60;;
43154;SDS011;34212;51.018;13.586;2023-07-16T21:39:43;4.28;;;2.80;;
43154;SDS011;34212;51.018;13.586;2023-07-16T21:44:45;6.50;;;3.03;;
43154;SDS011;34212;51.018;13.586;2023-07-16T21:49:46;4.35;;;2.85;;
43154;SDS011;34212;51.018;13.586;2023-07-16T21:54:48;8.27;;;3.03;;
43154;SDS011;34212;51.018;13.586;2023-07-16T21:59:49;5.80;;;2.88;;
43154;SDS011;34212;51.018;13.586;2023-07-16T22:04:51;8.75;;;2.75;;
43154;SDS011;34212;51.018;13.586;2023-07-16T22:09:52;3.95;;;2.55;;
43154;SDS011;34212;51.018;13.586;2023-07-16T22:14:54;4.13;;;2.65;;
43154;SDS011;34212;51.018;13.586;2023-07-16T22:19:56;4.43;;;2.75;;
43154;SDS011;34212;51.018;13.586;2023-07-16T22:24:58;4.80;;;2.88;;
43154;SDS011;34212;51.018;13.586;2023-07-16T22:29:59;5.15;;;2.65;;
43154;SDS011;34212;51.018;13.586;2023-07-16T22:35:01;4.90;;;2.97;;
43154;SDS011;34212;51.018;13.586;2023-07-16T22:40:04;7.25;;;2.90;;
43154;SDS011;34212;51.018;13.586;2023-07-16T22:45:07;5.95;;;3.22;;
43154;SDS011;34212;51.018;13.586;2023-07-16T22:50:08;5.93;;;3.25;;
43154;SDS011;34212;51.018;13.586;2023-07-16T22:55:10;6.63;;;2.83;;
43154;SDS011;34212;51.018;13.586;2023-07-16T23:00:12;4.40;;;2.70;;
43154;SDS011;34212;51.018;13.586;2023-07-16T23:05:15;5.60;;;3.30;;
43154;SDS011;34212;51.018;13.586;2023-07-16T23:10:16;6.65;;;2.97;;
43154;SDS011;34212;51.018;13.586;2023-07-16T23:15:18;6.82;;;3.10;;
43154;SDS011;34212;51.018;13.586;2023-07-16T23:20:22;6.97;;;2.78;;
43154;SDS011;34212;51.018;13.586;2023-07-16T23:25:23;4.40;;;2.75;;
43154;SDS011;34212;51.018;13.586;2023-07-16T23:30:26;6.82;;;3.63;;
43154;SDS011;34212;51.018;13.586;2023-07-16T23:35:32;6.30;;;2.88;;
43154;SDS011;34212;51.018;13.586;2023-07-16T23:40:33;5.82;;;3.00;;
43154;SDS011;34212;51.018;13.586;2023-07-16T23:45:35;3.30;;;3.00;;
43154;SDS011;34212;51.018;13.586;2023-07-16T23:50:37;4.10;;;2.72;;
43154;SDS011;34212;51.018;13.586;2023-07-16T23:55:38;5.60;;;2.90;;
